sensor_id;sensor_type;location;lat;lon;timestamp;P1;durP1;ratioP1;P2;durP2;ratioP2
19084;SDS011;9675;51.538;6.728;2023-02-11T00:01:24;21.27;;;8.07;;
19084;SDS011;9675;51.538;6.728;2023-02-11T00:03:54;20.27;;;8.70;;
19084;SDS011;9675;51.538;6.728;2023-02-11T00:06:23;15.13;;;6.93;;
19084;SDS011;9675;51.538;6.728;2023-02-11T00:08:52;20.37;;;9.37;;
19084;SDS011;9675;51.538;6.728;2023-02-11T00:11:21;17.57;;;7.07;;
19084;SDS011;9675;51.538;6.728;2023-02-11T00:13:50;15.63;;;7.27;;
19084;SDS011;9675;51.538;6.728;2023-02-11T00:16:19;19.77;;;7.80;;
19084;SDS011;9675;51.538;6.728;2023-02-11T00:18:46;17.97;;;7.20;;
19084;SDS011;9675;51.538;6.728;2023-02-11T00:21:15;17.03;;;7.43;;
19084;SDS011;9675;51.538;6.728;2023-02-11T00:23:45;22.87;;;10.30;;
19084;SDS011;9675;51.538;6.728;2023-02-11T00:26:13;18.67;;;7.87;;
19084;SDS011;9675;51.538;6.728;2023-02-11T00:28:44;22.43;;;8.00;;
19084;SDS011;9675;51.538;6.728;2023-02-11T00:31:14;18.90;;;7.37;;
19084;SDS011;9675;51.538;6.728;2023-02-11T00:33:44;23.03;;;7.73;;
19084;SDS011;9675;51.538;6.728;2023-02-11T00:36:13;20.50;;;7.90;;
19084;SDS011;9675;51.538;6.728;2023-02-11T00:38:43;18.07;;;6.57;;
19084;SDS011;9675;51.538;6.728;2023-02-11T00:41:12;23.37;;;8.53;;
19084;SDS011;9675;51.538;6.728;2023-02-11T00:43:40;15.07;;;6.90;;
19084;SDS011;9675;51.538;6.728;2023-02-11T00:46:07;18.37;;;7.90;;
19084;SDS011;9675;51.538;6.728;2023-02-11T00:48:35;17.93;;;6.27;;
19084;SDS011;9675;51.538;6.728;2023-02-11T00:51:04;25.77;;;8.33;;
19084;SDS011;9675;51.538;6.728;2023-02-11T00:53:32;17.20;;;7.47;;
19084;SDS011;9675;51.538;6.728;2023-02-11T00:56:00;23.53;;;9.17;;
19084;SDS011;9675;51.538;6.728;2023-02-11T00:58:27;15.70;;;6.53;;
19084;SDS011;9675;51.538;6.728;2023-02-11T01:00:55;25.50;;;9.40;;
19084;SDS011;9675;51.538;6.728;2023-02-11T01:03:22;26.43;;;11.00;;
19084;SDS011;9675;51.538;6.728;2023-02-11T01:05:50;19.33;;;8.17;;
19084;SDS011;9675;51.538;6.728;2023-02-11T01:08:18;26.57;;;9.80;;
19084;SDS011;9675;51.538;6.728;2023-02-11T01:10:52;22.87;;;8.67;;
19084;SDS011;9675;51.538;6.728;2023-02-11T01:13:21;16.37;;;8.07;;
19084;SDS011;9675;51.538;6.728;2023-02-11T01:15:48;21.47;;;7.37;;
19084;SDS011;9675;51.538;6.728;2023-02-11T01:18:16;26.93;;;12.87;;
19084;SDS011;9675;51.538;6.728;2023-02-11T01:20:43;12.37;;;5.30;;
19084;SDS011;9675;51.538;6.728;2023-02-11T01:23:11;14.73;;;6.00;;
19084;SDS011;9675;51.538;6.728;2023-02-11T01:25:39;23.37;;;8.27;;
19084;SDS011;9675;51.538;6.728;2023-02-11T01:28:09;16.90;;;6.70;;
19084;SDS011;9675;51.538;6.728;2023-02-11T01:30:42;18.60;;;7.17;;
19084;SDS011;9675;51.538;6.728;2023-02-11T01:33:09;13.10;;;5.40;;
19084;SDS011;9675;51.538;6.728;2023-02-11T01:35:37;15.97;;;6.17;;
19084;SDS011;9675;51.538;6.728;2023-02-11T01:38:05;18.77;;;6.30;;
19084;SDS011;9675;51.538;6.728;2023-02-11T01:40:33;12.43;;;5.80;;
19084;SDS011;9675;51.538;6.728;2023-02-11T01:43:01;19.20;;;8.57;;
19084;SDS011;9675;51.538;6.728;2023-02-11T01:45:41;10.07;;;4.60;;
19084;SDS011;9675;51.538;6.728;2023-02-11T01:48:26;13.00;;;5.33;;
19084;SDS011;9675;51.538;6.728;2023-02-11T01:51:02;17.00;;;7.30;;
19084;SDS011;9675;51.538;6.728;2023-02-11T01:53:34;21.40;;;6.53;;
19084;SDS011;9675;51.538;6.728;2023-02-11T01:56:20;13.63;;;5.50;;
19084;SDS011;9675;51.538;6.728;2023-02-11T01:59:10;12.13;;;6.13;;
19084;SDS011;9675;51.538;6.728;2023-02-11T02:01:44;16.00;;;5.83;;
19084;SDS011;9675;51.538;6.728;2023-02-11T02:04:18;15.80;;;6.93;;
19084;SDS011;9675;51.538;6.728;2023-02-11T02:06:51;17.23;;;5.57;;
19084;SDS011;9675;51.538;6.728;2023-02-11T02:09:28;12.50;;;5.37;;
19084;SDS011;9675;51.538;6.728;2023-02-11T02:12:03;14.40;;;6.27;;
19084;SDS011;9675;51.538;6.728;2023-02-11T02:14:32;15.77;;;7.27;;
19084;SDS011;9675;51.538;6.728;2023-02-11T02:17:03;14.30;;;5.77;;
19084;SDS011;9675;51.538;6.728;2023-02-11T02:22:51;12.47;;;5.50;;
19084;SDS011;9675;51.538;6.728;2023-02-11T02:25:55;15.77;;;6.20;;
19084;SDS011;9675;51.538;6.728;2023-02-11T02:32:18;18.67;;;6.37;;
19084;SDS011;9675;51.538;6.728;2023-02-11T02:35:00;22.00;;;6.23;;
19084;SDS011;9675;51.538;6.728;2023-02-11T02:37:41;15.17;;;6.00;;
19084;SDS011;9675;51.538;6.728;2023-02-11T02:40:18;14.73;;;6.83;;
19084;SDS011;9675;51.538;6.728;2023-02-11T02:42:51;10.10;;;4.63;;
19084;SDS011;9675;51.538;6.728;2023-02-11T02:45:20;13.97;;;6.60;;
19084;SDS011;9675;51.538;6.728;2023-02-11T02:47:48;21.90;;;8.10;;
19084;SDS011;9675;51.538;6.728;2023-02-11T02:50:16;17.37;;;6.83;;
19084;SDS011;9675;51.538;6.728;2023-02-11T02:52:55;17.47;;;6.53;;
19084;SDS011;9675;51.538;6.728;2023-02-11T02:55:41;16.73;;;5.50;;
19084;SDS011;9675;51.538;6.728;2023-02-11T02:58:43;16.80;;;5.90;;
19084;SDS011;9675;51.538;6.728;2023-02-11T03:01:30;17.87;;;6.60;;
19084;SDS011;9675;51.538;6.728;2023-02-11T03:04:16;9.67;;;3.73;;
19084;SDS011;9675;51.538;6.728;2023-02-11T03:06:52;12.93;;;6.00;;
19084;SDS011;9675;51.538;6.728;2023-02-11T03:09:28;17.03;;;6.00;;
19084;SDS011;9675;51.538;6.728;2023-02-11T03:12:04;17.53;;;6.20;;
19084;SDS011;9675;51.538;6.728;2023-02-11T03:14:33;14.53;;;5.93;;
19084;SDS011;9675;51.538;6.728;2023-02-11T03:17:04;14.73;;;4.00;;
19084;SDS011;9675;51.538;6.728;2023-02-11T03:19:35;11.43;;;5.27;;
19084;SDS011;9675;51.538;6.728;2023-02-11T03:22:07;17.40;;;6.57;;
19084;SDS011;9675;51.538;6.728;2023-02-11T03:24:44;14.93;;;5.00;;
19084;SDS011;9675;51.538;6.728;2023-02-11T03:27:14;10.67;;;4.97;;
19084;SDS011;9675;51.538;6.728;2023-02-11T03:29:52;18.43;;;4.77;;
19084;SDS011;9675;51.538;6.728;2023-02-11T03:32:28;8.77;;;4.50;;
19084;SDS011;9675;51.538;6.728;2023-02-11T03:35:04;6.60;;;3.47;;
19084;SDS011;9675;51.538;6.728;2023-02-11T03:37:37;10.03;;;4.90;;
19084;SDS011;9675;51.538;6.728;2023-02-11T03:40:09;10.07;;;4.90;;
19084;SDS011;9675;51.538;6.728;2023-02-11T03:42:40;13.20;;;4.57;;
19084;SDS011;9675;51.538;6.728;2023-02-11T03:45:15;9.60;;;4.57;;
19084;SDS011;9675;51.538;6.728;2023-02-11T03:47:48;10.60;;;3.00;;
19084;SDS011;9675;51.538;6.728;2023-02-11T03:50:22;6.07;;;3.57;;
19084;SDS011;9675;51.538;6.728;2023-02-11T03:52:54;12.67;;;3.63;;
19084;SDS011;9675;51.538;6.728;2023-02-11T03:55:23;10.80;;;4.20;;
19084;SDS011;9675;51.538;6.728;2023-02-11T03:57:54;8.57;;;3.70;;
19084;SDS011;9675;51.538;6.728;2023-02-11T04:00:28;18.07;;;5.60;;
19084;SDS011;9675;51.538;6.728;2023-02-11T04:02:56;13.70;;;4.90;;
19084;SDS011;9675;51.538;6.728;2023-02-11T04:05:25;13.77;;;4.60;;
19084;SDS011;9675;51.538;6.728;2023-02-11T04:07:52;8.87;;;3.13;;
19084;SDS011;9675;51.538;6.728;2023-02-11T04:10:19;16.10;;;6.03;;
19084;SDS011;9675;51.538;6.728;2023-02-11T04:12:46;12.80;;;4.37;;
19084;SDS011;9675;51.538;6.728;2023-02-11T04:15:13;15.47;;;4.83;;
19084;SDS011;9675;51.538;6.728;2023-02-11T04:17:40;10.10;;;4.10;;
19084;SDS011;9675;51.538;6.728;2023-02-11T04:20:08;12.43;;;4.53;;
19084;SDS011;9675;51.538;6.728;2023-02-11T04:22:38;11.27;;;5.30;;
19084;SDS011;9675;51.538;6.728;2023-02-11T04:25:06;10.57;;;4.07;;
19084;SDS011;9675;51.538;6.728;2023-02-11T04:27:34;11.53;;;5.20;;
19084;SDS011;9675;51.538;6.728;2023-02-11T04:30:02;18.83;;;5.60;;
19084;SDS011;9675;51.538;6.728;2023-02-11T04:32:31;10.40;;;3.47;;
19084;SDS011;9675;51.538;6.728;2023-02-11T04:34:58;14.63;;;5.83;;
19084;SDS011;9675;51.538;6.728;2023-02-11T04:37:25;10.37;;;3.77;;
19084;SDS011;9675;51.538;6.728;2023-02-11T04:39:53;17.90;;;6.33;;
19084;SDS011;9675;51.538;6.728;2023-02-11T04:42:21;19.63;;;6.70;;
19084;SDS011;9675;51.538;6.728;2023-02-11T04:44:48;11.83;;;5.17;;
19084;SDS011;9675;51.538;6.728;2023-02-11T04:47:15;25.33;;;7.97;;
19084;SDS011;9675;51.538;6.728;2023-02-11T04:49:42;17.30;;;6.13;;
19084;SDS011;9675;51.538;6.728;2023-02-11T04:52:09;13.20;;;6.37;;
19084;SDS011;9675;51.538;6.728;2023-02-11T04:54:37;16.90;;;7.57;;
19084;SDS011;9675;51.538;6.728;2023-02-11T04:57:06;19.60;;;7.60;;
19084;SDS011;9675;51.538;6.728;2023-02-11T04:59:33;17.80;;;6.57;;
19084;SDS011;9675;51.538;6.728;2023-02-11T05:02:00;12.87;;;6.37;;
19084;SDS011;9675;51.538;6.728;2023-02-11T05:04:28;13.10;;;5.97;;
19084;SDS011;9675;51.538;6.728;2023-02-11T05:06:55;18.93;;;6.93;;
19084;SDS011;9675;51.538;6.728;2023-02-11T05:09:22;16.87;;;7.97;;
19084;SDS011;9675;51.538;6.728;2023-02-11T05:11:49;12.33;;;6.77;;
19084;SDS011;9675;51.538;6.728;2023-02-11T05:14:17;14.97;;;6.37;;
19084;SDS011;9675;51.538;6.728;2023-02-11T05:16:44;15.57;;;7.10;;
19084;SDS011;9675;51.538;6.728;2023-02-11T05:19:11;20.17;;;7.47;;
19084;SDS011;9675;51.538;6.728;2023-02-11T05:21:38;10.53;;;5.63;;
19084;SDS011;9675;51.538;6.728;2023-02-11T05:24:06;11.33;;;4.93;;
19084;SDS011;9675;51.538;6.728;2023-02-11T05:26:34;16.50;;;6.13;;
19084;SDS011;9675;51.538;6.728;2023-02-11T05:29:01;15.83;;;7.53;;
19084;SDS011;9675;51.538;6.728;2023-02-11T05:31:29;11.33;;;4.37;;
19084;SDS011;9675;51.538;6.728;2023-02-11T05:33:56;19.63;;;9.63;;
19084;SDS011;9675;51.538;6.728;2023-02-11T05:36:23;18.20;;;6.83;;
19084;SDS011;9675;51.538;6.728;2023-02-11T05:38:50;11.57;;;4.90;;
19084;SDS011;9675;51.538;6.728;2023-02-11T05:41:17;10.47;;;5.13;;
19084;SDS011;9675;51.538;6.728;2023-02-11T05:43:46;18.67;;;7.43;;
19084;SDS011;9675;51.538;6.728;2023-02-11T05:46:15;12.47;;;4.93;;
19084;SDS011;9675;51.538;6.728;2023-02-11T05:48:44;9.53;;;3.80;;
19084;SDS011;9675;51.538;6.728;2023-02-11T05:51:11;11.20;;;5.77;;
19084;SDS011;9675;51.538;6.728;2023-02-11T05:53:38;14.77;;;5.87;;
19084;SDS011;9675;51.538;6.728;2023-02-11T05:56:05;13.93;;;5.70;;
19084;SDS011;9675;51.538;6.728;2023-02-11T05:58:34;13.33;;;6.60;;
19084;SDS011;9675;51.538;6.728;2023-02-11T06:01:02;9.77;;;4.33;;
19084;SDS011;9675;51.538;6.728;2023-02-11T06:03:30;11.97;;;5.87;;
19084;SDS011;9675;51.538;6.728;2023-02-11T06:05:58;18.07;;;6.57;;
19084;SDS011;9675;51.538;6.728;2023-02-11T06:08:25;17.40;;;6.40;;
19084;SDS011;9675;51.538;6.728;2023-02-11T06:10:52;16.23;;;7.03;;
19084;SDS011;9675;51.538;6.728;2023-02-11T06:13:19;17.13;;;6.10;;
19084;SDS011;9675;51.538;6.728;2023-02-11T06:15:54;16.83;;;6.20;;
19084;SDS011;9675;51.538;6.728;2023-02-11T06:18:22;20.73;;;7.93;;
19084;SDS011;9675;51.538;6.728;2023-02-11T06:20:49;14.67;;;5.73;;
19084;SDS011;9675;51.538;6.728;2023-02-11T06:23:17;11.93;;;5.50;;
19084;SDS011;9675;51.538;6.728;2023-02-11T06:25:44;9.50;;;4.33;;
19084;SDS011;9675;51.538;6.728;2023-02-11T06:28:12;23.47;;;7.97;;
19084;SDS011;9675;51.538;6.728;2023-02-11T06:30:39;14.10;;;6.33;;
19084;SDS011;9675;51.538;6.728;2023-02-11T06:33:06;14.37;;;6.13;;
19084;SDS011;9675;51.538;6.728;2023-02-11T06:35:33;16.77;;;7.33;;
19084;SDS011;9675;51.538;6.728;2023-02-11T06:38:00;15.57;;;5.80;;
19084;SDS011;9675;51.538;6.728;2023-02-11T06:40:29;16.50;;;6.23;;
19084;SDS011;9675;51.538;6.728;2023-02-11T06:42:56;16.20;;;8.00;;
19084;SDS011;9675;51.538;6.728;2023-02-11T06:45:23;14.67;;;6.93;;
19084;SDS011;9675;51.538;6.728;2023-02-11T06:47:50;19.30;;;7.37;;
19084;SDS011;9675;51.538;6.728;2023-02-11T06:50:18;13.33;;;4.33;;
19084;SDS011;9675;51.538;6.728;2023-02-11T06:52:45;20.97;;;6.77;;
19084;SDS011;9675;51.538;6.728;2023-02-11T06:55:12;18.97;;;6.00;;
19084;SDS011;9675;51.538;6.728;2023-02-11T06:57:41;18.73;;;5.63;;
19084;SDS011;9675;51.538;6.728;2023-02-11T07:00:08;19.63;;;7.10;;
19084;SDS011;9675;51.538;6.728;2023-02-11T07:02:37;13.20;;;5.70;;
19084;SDS011;9675;51.538;6.728;2023-02-11T07:05:04;19.90;;;8.40;;
19084;SDS011;9675;51.538;6.728;2023-02-11T07:07:33;16.17;;;6.63;;
19084;SDS011;9675;51.538;6.728;2023-02-11T07:10:00;28.37;;;7.53;;
19084;SDS011;9675;51.538;6.728;2023-02-11T07:12:28;20.53;;;7.90;;
19084;SDS011;9675;51.538;6.728;2023-02-11T07:14:57;19.73;;;9.60;;
19084;SDS011;9675;51.538;6.728;2023-02-11T07:17:24;21.83;;;9.40;;
19084;SDS011;9675;51.538;6.728;2023-02-11T07:19:51;25.97;;;11.27;;
19084;SDS011;9675;51.538;6.728;2023-02-11T07:22:18;23.20;;;9.20;;
19084;SDS011;9675;51.538;6.728;2023-02-11T07:24:45;26.80;;;9.23;;
19084;SDS011;9675;51.538;6.728;2023-02-11T07:27:12;21.17;;;9.47;;
19084;SDS011;9675;51.538;6.728;2023-02-11T07:29:40;19.67;;;10.00;;
19084;SDS011;9675;51.538;6.728;2023-02-11T07:32:11;21.40;;;7.77;;
19084;SDS011;9675;51.538;6.728;2023-02-11T07:34:38;17.33;;;6.37;;
19084;SDS011;9675;51.538;6.728;2023-02-11T07:37:06;15.33;;;7.20;;
19084;SDS011;9675;51.538;6.728;2023-02-11T07:39:33;11.73;;;5.73;;
19084;SDS011;9675;51.538;6.728;2023-02-11T07:42:00;23.93;;;9.43;;
19084;SDS011;9675;51.538;6.728;2023-02-11T07:44:28;21.53;;;7.73;;
19084;SDS011;9675;51.538;6.728;2023-02-11T07:46:57;17.53;;;7.13;;
19084;SDS011;9675;51.538;6.728;2023-02-11T07:49:25;21.50;;;8.33;;
19084;SDS011;9675;51.538;6.728;2023-02-11T07:51:52;16.60;;;8.27;;
19084;SDS011;9675;51.538;6.728;2023-02-11T07:54:19;14.73;;;6.23;;
19084;SDS011;9675;51.538;6.728;2023-02-11T07:56:47;20.20;;;8.40;;
19084;SDS011;9675;51.538;6.728;2023-02-11T07:59:14;19.47;;;7.57;;
19084;SDS011;9675;51.538;6.728;2023-02-11T08:01:41;15.20;;;6.77;;
19084;SDS011;9675;51.538;6.728;2023-02-11T08:04:08;22.63;;;7.33;;
19084;SDS011;9675;51.538;6.728;2023-02-11T08:06:39;23.30;;;7.40;;
19084;SDS011;9675;51.538;6.728;2023-02-11T08:09:09;24.13;;;7.27;;
19084;SDS011;9675;51.538;6.728;2023-02-11T08:11:40;19.10;;;8.67;;
19084;SDS011;9675;51.538;6.728;2023-02-11T08:14:08;28.77;;;8.30;;
19084;SDS011;9675;51.538;6.728;2023-02-11T08:16:36;16.57;;;6.63;;
19084;SDS011;9675;51.538;6.728;2023-02-11T08:19:05;15.20;;;6.67;;
19084;SDS011;9675;51.538;6.728;2023-02-11T08:21:37;19.37;;;5.90;;
19084;SDS011;9675;51.538;6.728;2023-02-11T08:24:04;18.87;;;7.67;;
19084;SDS011;9675;51.538;6.728;2023-02-11T08:26:33;16.90;;;5.10;;
19084;SDS011;9675;51.538;6.728;2023-02-11T08:29:01;25.57;;;9.00;;
19084;SDS011;9675;51.538;6.728;2023-02-11T08:31:34;17.23;;;7.00;;
19084;SDS011;9675;51.538;6.728;2023-02-11T08:34:04;22.57;;;7.00;;
19084;SDS011;9675;51.538;6.728;2023-02-11T08:36:32;22.07;;;7.23;;
19084;SDS011;9675;51.538;6.728;2023-02-11T08:39:05;16.27;;;6.10;;
19084;SDS011;9675;51.538;6.728;2023-02-11T08:41:37;6.20;;;3.40;;
19084;SDS011;9675;51.538;6.728;2023-02-11T08:44:04;19.13;;;6.87;;
19084;SDS011;9675;51.538;6.728;2023-02-11T08:46:32;17.37;;;7.20;;
19084;SDS011;9675;51.538;6.728;2023-02-11T08:48:59;13.87;;;6.80;;
19084;SDS011;9675;51.538;6.728;2023-02-11T08:51:27;21.13;;;8.43;;
19084;SDS011;9675;51.538;6.728;2023-02-11T08:53:57;23.40;;;7.07;;
19084;SDS011;9675;51.538;6.728;2023-02-11T08:56:25;19.13;;;7.73;;
19084;SDS011;9675;51.538;6.728;2023-02-11T08:58:55;21.37;;;7.20;;
19084;SDS011;9675;51.538;6.728;2023-02-11T09:01:23;29.03;;;9.17;;
19084;SDS011;9675;51.538;6.728;2023-02-11T09:03:53;23.03;;;8.57;;
19084;SDS011;9675;51.538;6.728;2023-02-11T09:06:21;28.77;;;8.67;;
19084;SDS011;9675;51.538;6.728;2023-02-11T09:08:52;14.30;;;6.40;;
19084;SDS011;9675;51.538;6.728;2023-02-11T09:11:25;23.70;;;7.80;;
19084;SDS011;9675;51.538;6.728;2023-02-11T09:13:54;19.87;;;7.70;;
19084;SDS011;9675;51.538;6.728;2023-02-11T09:16:22;16.97;;;7.93;;
19084;SDS011;9675;51.538;6.728;2023-02-11T09:18:51;27.60;;;9.07;;
19084;SDS011;9675;51.538;6.728;2023-02-11T09:21:19;23.93;;;8.93;;
19084;SDS011;9675;51.538;6.728;2023-02-11T09:23:46;25.63;;;10.20;;
19084;SDS011;9675;51.538;6.728;2023-02-11T09:26:16;19.33;;;7.20;;
19084;SDS011;9675;51.538;6.728;2023-02-11T09:28:46;24.13;;;7.83;;
19084;SDS011;9675;51.538;6.728;2023-02-11T09:31:13;25.10;;;9.53;;
19084;SDS011;9675;51.538;6.728;2023-02-11T09:33:46;31.67;;;11.07;;
19084;SDS011;9675;51.538;6.728;2023-02-11T09:36:18;21.63;;;8.73;;
19084;SDS011;9675;51.538;6.728;2023-02-11T09:38:48;26.90;;;11.07;;
19084;SDS011;9675;51.538;6.728;2023-02-11T09:41:22;26.30;;;9.40;;
19084;SDS011;9675;51.538;6.728;2023-02-11T09:44:08;22.77;;;7.43;;
19084;SDS011;9675;51.538;6.728;2023-02-11T09:46:46;19.00;;;7.53;;
19084;SDS011;9675;51.538;6.728;2023-02-11T09:49:23;33.57;;;9.70;;
19084;SDS011;9675;51.538;6.728;2023-02-11T09:52:01;28.70;;;8.60;;
19084;SDS011;9675;51.538;6.728;2023-02-11T09:54:35;32.97;;;9.93;;
19084;SDS011;9675;51.538;6.728;2023-02-11T09:57:13;29.70;;;10.93;;
19084;SDS011;9675;51.538;6.728;2023-02-11T09:59:41;25.03;;;10.17;;
19084;SDS011;9675;51.538;6.728;2023-02-11T10:02:10;29.57;;;9.07;;
19084;SDS011;9675;51.538;6.728;2023-02-11T10:04:48;28.80;;;9.27;;
19084;SDS011;9675;51.538;6.728;2023-02-11T10:07:46;23.27;;;8.13;;
19084;SDS011;9675;51.538;6.728;2023-02-11T10:10:28;32.47;;;9.97;;
19084;SDS011;9675;51.538;6.728;2023-02-11T10:13:18;23.30;;;9.27;;
19084;SDS011;9675;51.538;6.728;2023-02-11T10:16:08;32.80;;;11.60;;
19084;SDS011;9675;51.538;6.728;2023-02-11T10:18:59;28.17;;;11.77;;
19084;SDS011;9675;51.538;6.728;2023-02-11T10:21:39;33.90;;;10.30;;
19084;SDS011;9675;51.538;6.728;2023-02-11T10:24:22;25.50;;;9.27;;
19084;SDS011;9675;51.538;6.728;2023-02-11T10:26:52;32.23;;;9.17;;
19084;SDS011;9675;51.538;6.728;2023-02-11T10:29:32;27.87;;;9.90;;
19084;SDS011;9675;51.538;6.728;2023-02-11T10:32:06;29.83;;;9.00;;
19084;SDS011;9675;51.538;6.728;2023-02-11T10:34:50;28.70;;;10.33;;
19084;SDS011;9675;51.538;6.728;2023-02-11T10:37:23;26.00;;;8.97;;
19084;SDS011;9675;51.538;6.728;2023-02-11T10:39:50;23.53;;;9.00;;
19084;SDS011;9675;51.538;6.728;2023-02-11T10:42:17;31.00;;;8.83;;
19084;SDS011;9675;51.538;6.728;2023-02-11T10:44:48;30.27;;;10.53;;
19084;SDS011;9675;51.538;6.728;2023-02-11T10:47:27;25.50;;;10.23;;
19084;SDS011;9675;51.538;6.728;2023-02-11T10:50:06;21.13;;;7.87;;
19084;SDS011;9675;51.538;6.728;2023-02-11T10:52:48;28.57;;;9.30;;
19084;SDS011;9675;51.538;6.728;2023-02-11T10:55:16;35.67;;;12.83;;
19084;SDS011;9675;51.538;6.728;2023-02-11T10:57:51;15.33;;;5.73;;
19084;SDS011;9675;51.538;6.728;2023-02-11T11:00:33;17.20;;;6.80;;
19084;SDS011;9675;51.538;6.728;2023-02-11T11:03:04;34.73;;;11.07;;
19084;SDS011;9675;51.538;6.728;2023-02-11T11:05:46;37.30;;;11.87;;
19084;SDS011;9675;51.538;6.728;2023-02-11T11:08:17;30.40;;;10.63;;
19084;SDS011;9675;51.538;6.728;2023-02-11T11:10:45;36.03;;;13.00;;
19084;SDS011;9675;51.538;6.728;2023-02-11T11:13:25;32.57;;;11.43;;
19084;SDS011;9675;51.538;6.728;2023-02-11T11:18:48;25.37;;;9.73;;
19084;SDS011;9675;51.538;6.728;2023-02-11T11:21:19;33.70;;;10.23;;
19084;SDS011;9675;51.538;6.728;2023-02-11T11:23:53;23.87;;;10.27;;
19084;SDS011;9675;51.538;6.728;2023-02-11T11:26:24;44.27;;;15.27;;
19084;SDS011;9675;51.538;6.728;2023-02-11T11:28:56;30.20;;;12.80;;
19084;SDS011;9675;51.538;6.728;2023-02-11T11:31:29;32.17;;;10.30;;
19084;SDS011;9675;51.538;6.728;2023-02-11T11:34:00;34.27;;;10.97;;
19084;SDS011;9675;51.538;6.728;2023-02-11T11:36:44;26.47;;;8.20;;
19084;SDS011;9675;51.538;6.728;2023-02-11T11:39:15;29.23;;;12.30;;
19084;SDS011;9675;51.538;6.728;2023-02-11T11:41:49;41.70;;;12.30;;
19084;SDS011;9675;51.538;6.728;2023-02-11T11:44:25;28.97;;;10.80;;
19084;SDS011;9675;51.538;6.728;2023-02-11T11:52:55;30.03;;;12.20;;
19084;SDS011;9675;51.538;6.728;2023-02-11T11:55:30;26.60;;;10.83;;
19084;SDS011;9675;51.538;6.728;2023-02-11T11:58:03;33.50;;;10.23;;
19084;SDS011;9675;51.538;6.728;2023-02-11T12:00:36;27.47;;;11.57;;
19084;SDS011;9675;51.538;6.728;2023-02-11T12:03:33;34.33;;;12.67;;
19084;SDS011;9675;51.538;6.728;2023-02-11T12:06:34;35.43;;;11.80;;
19084;SDS011;9675;51.538;6.728;2023-02-11T12:09:15;28.73;;;10.30;;
19084;SDS011;9675;51.538;6.728;2023-02-11T12:12:04;31.97;;;10.50;;
19084;SDS011;9675;51.538;6.728;2023-02-11T12:14:53;28.03;;;9.80;;
19084;SDS011;9675;51.538;6.728;2023-02-11T12:17:41;31.43;;;10.00;;
19084;SDS011;9675;51.538;6.728;2023-02-11T12:20:33;29.37;;;11.03;;
19084;SDS011;9675;51.538;6.728;2023-02-11T12:23:20;32.40;;;11.73;;
19084;SDS011;9675;51.538;6.728;2023-02-11T12:26:06;30.67;;;12.33;;
19084;SDS011;9675;51.538;6.728;2023-02-11T12:28:43;29.53;;;11.40;;
19084;SDS011;9675;51.538;6.728;2023-02-11T12:31:43;38.57;;;11.30;;
19084;SDS011;9675;51.538;6.728;2023-02-11T12:34:40;34.77;;;12.00;;
19084;SDS011;9675;51.538;6.728;2023-02-11T12:37:44;37.23;;;12.67;;
19084;SDS011;9675;51.538;6.728;2023-02-11T12:40:40;29.73;;;9.73;;
19084;SDS011;9675;51.538;6.728;2023-02-11T12:43:16;39.23;;;13.67;;
19084;SDS011;9675;51.538;6.728;2023-02-11T12:45:53;29.50;;;10.43;;
19084;SDS011;9675;51.538;6.728;2023-02-11T12:48:38;25.57;;;9.77;;
19084;SDS011;9675;51.538;6.728;2023-02-11T12:51:32;37.90;;;12.23;;
19084;SDS011;9675;51.538;6.728;2023-02-11T12:54:20;34.90;;;9.90;;
19084;SDS011;9675;51.538;6.728;2023-02-11T12:56:56;31.43;;;11.37;;
19084;SDS011;9675;51.538;6.728;2023-02-11T12:59:33;28.23;;;10.47;;
19084;SDS011;9675;51.538;6.728;2023-02-11T13:02:13;32.80;;;12.10;;
19084;SDS011;9675;51.538;6.728;2023-02-11T13:04:52;36.20;;;10.83;;
19084;SDS011;9675;51.538;6.728;2023-02-11T13:07:26;30.90;;;11.73;;
19084;SDS011;9675;51.538;6.728;2023-02-11T13:10:02;25.80;;;9.37;;
19084;SDS011;9675;51.538;6.728;2023-02-11T13:12:41;25.23;;;10.13;;
19084;SDS011;9675;51.538;6.728;2023-02-11T13:15:31;23.97;;;7.77;;
19084;SDS011;9675;51.538;6.728;2023-02-11T13:17:59;34.70;;;11.77;;
19084;SDS011;9675;51.538;6.728;2023-02-11T13:20:44;28.43;;;11.20;;
19084;SDS011;9675;51.538;6.728;2023-02-11T13:23:21;39.57;;;13.27;;
19084;SDS011;9675;51.538;6.728;2023-02-11T13:25:58;24.07;;;9.70;;
19084;SDS011;9675;51.538;6.728;2023-02-11T13:28:41;38.77;;;11.87;;
19084;SDS011;9675;51.538;6.728;2023-02-11T13:31:19;21.20;;;9.37;;
19084;SDS011;9675;51.538;6.728;2023-02-11T13:33:52;28.80;;;9.73;;
19084;SDS011;9675;51.538;6.728;2023-02-11T13:36:20;22.67;;;9.60;;
19084;SDS011;9675;51.538;6.728;2023-02-11T13:38:54;39.03;;;12.30;;
19084;SDS011;9675;51.538;6.728;2023-02-11T13:41:40;39.93;;;13.73;;
19084;SDS011;9675;51.538;6.728;2023-02-11T13:44:25;27.60;;;10.97;;
19084;SDS011;9675;51.538;6.728;2023-02-11T13:46:55;31.63;;;11.47;;
19084;SDS011;9675;51.538;6.728;2023-02-11T13:49:29;20.63;;;8.07;;
19084;SDS011;9675;51.538;6.728;2023-02-11T13:52:04;24.43;;;10.30;;
19084;SDS011;9675;51.538;6.728;2023-02-11T13:54:47;31.50;;;11.90;;
19084;SDS011;9675;51.538;6.728;2023-02-11T13:57:28;31.73;;;11.00;;
19084;SDS011;9675;51.538;6.728;2023-02-11T14:00:09;33.33;;;13.03;;
19084;SDS011;9675;51.538;6.728;2023-02-11T14:03:21;34.97;;;13.20;;
19084;SDS011;9675;51.538;6.728;2023-02-11T14:06:16;32.37;;;11.30;;
19084;SDS011;9675;51.538;6.728;2023-02-11T14:09:09;32.30;;;12.60;;
19084;SDS011;9675;51.538;6.728;2023-02-11T14:12:18;35.47;;;14.70;;
19084;SDS011;9675;51.538;6.728;2023-02-11T14:15:00;41.53;;;15.50;;
19084;SDS011;9675;51.538;6.728;2023-02-11T14:17:47;34.67;;;13.60;;
19084;SDS011;9675;51.538;6.728;2023-02-11T14:20:31;33.80;;;13.50;;
19084;SDS011;9675;51.538;6.728;2023-02-11T14:23:21;36.80;;;14.53;;
19084;SDS011;9675;51.538;6.728;2023-02-11T14:26:06;43.10;;;16.90;;
19084;SDS011;9675;51.538;6.728;2023-02-11T14:28:58;41.00;;;16.77;;
19084;SDS011;9675;51.538;6.728;2023-02-11T14:31:39;30.33;;;14.20;;
19084;SDS011;9675;51.538;6.728;2023-02-11T14:34:21;47.03;;;18.40;;
19084;SDS011;9675;51.538;6.728;2023-02-11T14:37:12;33.23;;;13.80;;
19084;SDS011;9675;51.538;6.728;2023-02-11T14:42:49;32.23;;;12.30;;
19084;SDS011;9675;51.538;6.728;2023-02-11T14:45:19;31.10;;;13.33;;
19084;SDS011;9675;51.538;6.728;2023-02-11T14:47:52;30.97;;;12.07;;
19084;SDS011;9675;51.538;6.728;2023-02-11T14:50:31;30.30;;;11.37;;
19084;SDS011;9675;51.538;6.728;2023-02-11T14:53:09;20.90;;;9.80;;
19084;SDS011;9675;51.538;6.728;2023-02-11T14:55:43;27.43;;;11.60;;
19084;SDS011;9675;51.538;6.728;2023-02-11T14:58:17;29.67;;;12.53;;
19084;SDS011;9675;51.538;6.728;2023-02-11T15:00:47;29.43;;;11.30;;
19084;SDS011;9675;51.538;6.728;2023-02-11T15:03:31;22.83;;;10.03;;
19084;SDS011;9675;51.538;6.728;2023-02-11T15:06:02;34.50;;;12.80;;
19084;SDS011;9675;51.538;6.728;2023-02-11T15:08:33;22.17;;;9.90;;
19084;SDS011;9675;51.538;6.728;2023-02-11T15:11:08;26.70;;;9.53;;
19084;SDS011;9675;51.538;6.728;2023-02-11T15:13:42;25.80;;;10.53;;
19084;SDS011;9675;51.538;6.728;2023-02-11T15:16:11;28.70;;;10.47;;
19084;SDS011;9675;51.538;6.728;2023-02-11T15:18:44;27.00;;;12.07;;
19084;SDS011;9675;51.538;6.728;2023-02-11T15:21:19;29.80;;;12.37;;
19084;SDS011;9675;51.538;6.728;2023-02-11T15:23:55;27.10;;;11.50;;
19084;SDS011;9675;51.538;6.728;2023-02-11T15:26:25;30.60;;;12.43;;
19084;SDS011;9675;51.538;6.728;2023-02-11T15:28:55;26.30;;;9.70;;
19084;SDS011;9675;51.538;6.728;2023-02-11T15:31:23;20.00;;;8.97;;
19084;SDS011;9675;51.538;6.728;2023-02-11T15:33:52;26.13;;;10.10;;
19084;SDS011;9675;51.538;6.728;2023-02-11T15:36:21;27.43;;;10.87;;
19084;SDS011;9675;51.538;6.728;2023-02-11T15:41:44;34.40;;;10.73;;
19084;SDS011;9675;51.538;6.728;2023-02-11T15:44:29;26.50;;;9.83;;